Terminal Aerodrome Forecast
Issued by NWS

Home | Current Version | Previous Version | Text Only | Print | Product List | Glossary Off
Versions: 1 2 3 4 5 6 7 8 9 10 11 12 13 14 15 16 17 18 19 20 21

000
FTUS43 KABR 251700
TAFMBG
TAF
KMBG 251720Z 2518/2618 32014G22KT P6SM BKN040
     FM260300 VRB05KT P6SM SCT100
     FM261100 10007KT P6SM SKC=

USA.gov is the U.S. government's official web portal to all federal, state and local government web resources and services.